Siemreap, Cambodia

2:54 AM ICT on August 21, 2014 (GMT +0700)
Siem Reap | Change Station
CLOSE
Current Station
Airport
Location: Siemreap,
Elevation: 49 ft
Nearby Weather Stations

Elev 49 ft 13.37 °N, 103.85 °E | Updated 1 hour ago

Scattered Clouds
Scattered Clouds
81 °F
Feels Like 86 °F
N
5
Wind Variable Wind from SSW

Today
High -- | Low -- °F
--% Chance of Precip.
Yesterday
High -- | Low -- °F
Precip. -- in
5:52 AM 6:22 PM
Waning Crescent, 19% visible
Pressure 29.77 in
Visibility 5.6 miles
Clouds Scattered Clouds 1500 ft
Scattered Clouds 4000 ft
Heat Index 86 °F
Dew Point 75 °F
Humidity 84%
Rainfall 0.00 in
Snow Depth Not available.
UV 0 out of 12
Pollen Not available.
Air Quality Not available.
Flu Activity Not available.
METAR VDSR 201800Z 21004KT 9000 SCT015 SCT040 27/24 Q1008

More Conditions Fewer Conditions

Pressure 29.77 in
Visibility 5.6 miles
Clouds Scattered Clouds 1500 ft
Scattered Clouds 4000 ft
Heat Index 86 °F
Dew Point 75 °F
Humidity 84%
Rainfall 0.00 in
Snow Depth Not available.
UV 0 out of 12
Pollen Not available.
Air Quality Not available.
Flu Activity Not available.
METAR VDSR 201800Z 21004KT 9000 SCT015 SCT040 27/24 Q1008

More Conditions Fewer Conditions

10-Day Weather Forecast

Almanac

Astronomy

Aug. 21, 2014 Rise Set
Actual Time 5:52 AM ICT 6:22 PM ICT
Civil Twilight 5:30 AM ICT 6:44 PM ICT
Nautical Twilight 5:05 AM ICT 7:10 PM ICT
Astronomical Twilight 4:39 AM ICT 7:35 PM ICT
Moon 2:12 AM ICT (8/21) 3:12 PM ICT (8/21)
Length of Visible Light 13h 13m
Length of Day
12h 30m
Tomorrow will be 0m 40s shorter.
Waning Crescent, 19% of the Moon is Illuminated
Aug 20
Waning Crescent
Aug 25
New
Sep 2
First Quarter
Sep 8
Full
Sep 15
Last Quarter

Yesterday's Extremes

Country Highs Country Lows

Community

WunderPhotos

Upload Photos

1,745,727 photos uploaded!

WunderBlogs® & News

By Dr. Jeff Masters
Director of Meteorology, Weather Underground
By Kari Strenfel
Meteorologist, Weather Underground
By Christopher C. Burt
Weather Historian, Weather Underground
August 20, 2014
August 20, 2014
August 20, 2014

Nearby

Snow Depth

Not available.

Earthquake Activity

City Distance Mag. Time & Date
No recent earthquake activity has been reported nearby.
Minimum magnitude displayed is 2.5.

Coastal Water Temperatures

Place Temperature
No Stations Reporting

Nearby Weather Stations